AXB2846 VOPB-VOMM
Flight info
| Callsign | AXB2846 |
|---|---|
| Flight time | 1h 49m |
| Altitude | 36000 |
| Route | DCT PPB P761 IDASO V3 AVMOR AVMOR2F |
| Aircraft | A320/M-SDE3FGHIRWY/LB1 |
Departure
| Time | 2026-05-06 19:14 |
|---|---|
| Airport | Veer Savarkar International Airport / INS Utkrosh (VOPB) |
Arrival
| Time | 2026-05-06 21:03 |
|---|---|
| Airport | Chennai International Airport (VOMM) |
| Time | Latitude | Longitude | Altitude | Speed | Heading |
|---|---|---|---|---|---|
| 2026-05-06 18:55 | 11.65057 | 92.73388 | 45 ft | 0 kts | 306° |
| 2026-05-06 19:02 | 11.65053 | 92.73392 | 45 ft | 2 kts | 305° |
| 2026-05-06 19:02 | 11.65045 | 92.73405 | 45 ft | 2 kts | 305° |
| 2026-05-06 19:03 | 11.65036 | 92.73417 | 42 ft | 2 kts | 305° |
| 2026-05-06 19:03 | 11.65027 | 92.73429 | 44 ft | 2 kts | 302° |
| 2026-05-06 19:03 | 11.65021 | 92.73443 | 43 ft | 2 kts | 271° |
| 2026-05-06 19:03 | 11.65023 | 92.73458 | 47 ft | 2 kts | 240° |
| 2026-05-06 19:04 | 11.65032 | 92.73470 | 48 ft | 1 kts | 218° |
| 2026-05-06 19:06 | 11.65024 | 92.73463 | 47 ft | 3 kts | 218° |
| 2026-05-06 19:06 | 11.65003 | 92.73449 | 44 ft | 4 kts | 209° |
| 2026-05-06 19:07 | 11.64972 | 92.73447 | 46 ft | 4 kts | 167° |
| 2026-05-06 19:07 | 11.64952 | 92.73464 | 45 ft | 3 kts | 132° |
| 2026-05-06 19:07 | 11.64945 | 92.73471 | 46 ft | 0 kts | 129° |
| 2026-05-06 19:12 | 11.64945 | 92.73472 | 46 ft | 1 kts | 128° |
| 2026-05-06 19:12 | 11.64935 | 92.73485 | 46 ft | 2 kts | 127° |
| 2026-05-06 19:12 | 11.64921 | 92.73505 | 46 ft | 4 kts | 126° |
| 2026-05-06 19:12 | 11.64904 | 92.73527 | 45 ft | 3 kts | 131° |
| 2026-05-06 19:13 | 11.64876 | 92.73528 | 45 ft | 5 kts | 204° |
| 2026-05-06 19:13 | 11.64832 | 92.73497 | 43 ft | 17 kts | 216° |
| 2026-05-06 19:13 | 11.64531 | 92.73273 | 28 ft | 91 kts | 216° |
| 2026-05-06 19:13 | 11.63856 | 92.72766 | 36 ft | 147 kts | 216° |
| 2026-05-06 19:14 | 11.62928 | 92.72075 | 267 ft | 172 kts | 216° |
| 2026-05-06 19:14 | 11.61968 | 92.71367 | 940 ft | 170 kts | 216° |
| 2026-05-06 19:14 | 11.61019 | 92.70655 | 1600 ft | 169 kts | 216° |
| 2026-05-06 19:14 | 11.60077 | 92.69849 | 1948 ft | 189 kts | 232° |
| 2026-05-06 19:15 | 11.59605 | 92.68532 | 2165 ft | 213 kts | 269° |
| 2026-05-06 19:15 | 11.60010 | 92.67033 | 2445 ft | 230 kts | 304° |
| 2026-05-06 19:15 | 11.61233 | 92.65886 | 2694 ft | 253 kts | 332° |
| 2026-05-06 19:15 | 11.62888 | 92.65101 | 3157 ft | 270 kts | 338° |
| 2026-05-06 19:16 | 11.64629 | 92.64318 | 3883 ft | 277 kts | 330° |
| 2026-05-06 19:16 | 11.66069 | 92.62995 | 4637 ft | 283 kts | 305° |
| 2026-05-06 19:16 | 11.66915 | 92.61185 | 5404 ft | 286 kts | 283° |
| 2026-05-06 19:16 | 11.67237 | 92.59176 | 6148 ft | 289 kts | 277° |
| 2026-05-06 19:17 | 11.67522 | 92.57137 | 6869 ft | 292 kts | 277° |
| 2026-05-06 19:17 | 11.67821 | 92.55076 | 7591 ft | 295 kts | 278° |
| 2026-05-06 19:17 | 11.68128 | 92.52997 | 8280 ft | 299 kts | 278° |
| 2026-05-06 19:17 | 11.68441 | 92.50888 | 8986 ft | 302 kts | 278° |
| 2026-05-06 19:18 | 11.68756 | 92.48758 | 9691 ft | 305 kts | 278° |
| 2026-05-06 19:18 | 11.69074 | 92.46589 | 10141 ft | 318 kts | 278° |
| 2026-05-06 19:18 | 11.69412 | 92.44280 | 10276 ft | 340 kts | 278° |
| 2026-05-06 19:18 | 11.69770 | 92.41842 | 10635 ft | 352 kts | 278° |
| 2026-05-06 19:19 | 11.70135 | 92.39351 | 11184 ft | 357 kts | 278° |
| 2026-05-06 19:19 | 11.70506 | 92.36832 | 11779 ft | 361 kts | 278° |
| 2026-05-06 19:19 | 11.70882 | 92.34284 | 12372 ft | 365 kts | 278° |
| 2026-05-06 19:19 | 11.71261 | 92.31704 | 12970 ft | 369 kts | 278° |
| 2026-05-06 19:20 | 11.71643 | 92.29107 | 13550 ft | 372 kts | 278° |
| 2026-05-06 19:20 | 11.72026 | 92.26483 | 14069 ft | 376 kts | 278° |
| 2026-05-06 19:20 | 11.72411 | 92.23838 | 14590 ft | 378 kts | 278° |
| 2026-05-06 19:20 | 11.72800 | 92.21175 | 15116 ft | 381 kts | 278° |
| 2026-05-06 19:21 | 11.73192 | 92.18491 | 15642 ft | 383 kts | 278° |
| 2026-05-06 19:21 | 11.73586 | 92.15795 | 16155 ft | 386 kts | 278° |
| 2026-05-06 19:21 | 11.73985 | 92.13078 | 16663 ft | 388 kts | 278° |
| 2026-05-06 19:21 | 11.74385 | 92.10342 | 17167 ft | 391 kts | 278° |
| 2026-05-06 19:22 | 11.74651 | 92.08517 | 17501 ft | 393 kts | 278° |
| 2026-05-06 19:22 | 11.75053 | 92.05753 | 18004 ft | 396 kts | 278° |
| 2026-05-06 19:22 | 11.75458 | 92.02967 | 18451 ft | 398 kts | 278° |
| 2026-05-06 19:22 | 11.75863 | 92.00165 | 18876 ft | 400 kts | 278° |
| 2026-05-06 19:23 | 11.76269 | 91.97346 | 19318 ft | 403 kts | 278° |
| 2026-05-06 19:23 | 11.76676 | 91.94512 | 19747 ft | 405 kts | 278° |
| 2026-05-06 19:23 | 11.77088 | 91.91658 | 20168 ft | 408 kts | 278° |
| 2026-05-06 19:23 | 11.77506 | 91.88785 | 20605 ft | 410 kts | 278° |
| 2026-05-06 19:24 | 11.77927 | 91.85895 | 21029 ft | 413 kts | 278° |
| 2026-05-06 19:24 | 11.78350 | 91.82987 | 21450 ft | 416 kts | 278° |
| 2026-05-06 19:24 | 11.78774 | 91.80063 | 21868 ft | 418 kts | 278° |
| 2026-05-06 19:24 | 11.79146 | 91.77484 | 22239 ft | 421 kts | 278° |
| 2026-05-06 19:25 | 11.79518 | 91.74889 | 22596 ft | 423 kts | 278° |
| 2026-05-06 19:25 | 11.79947 | 91.71910 | 22995 ft | 426 kts | 278° |
| 2026-05-06 19:25 | 11.80378 | 91.68916 | 23388 ft | 428 kts | 278° |
| 2026-05-06 19:25 | 11.80813 | 91.65901 | 23710 ft | 431 kts | 278° |
| 2026-05-06 19:26 | 11.81251 | 91.62872 | 24035 ft | 432 kts | 278° |
| 2026-05-06 19:26 | 11.81689 | 91.59827 | 24354 ft | 435 kts | 278° |
| 2026-05-06 19:26 | 11.82127 | 91.56768 | 24661 ft | 437 kts | 278° |
| 2026-05-06 19:26 | 11.82569 | 91.53691 | 24967 ft | 439 kts | 278° |
| 2026-05-06 19:27 | 11.83014 | 91.50605 | 25272 ft | 441 kts | 278° |
| 2026-05-06 19:27 | 11.83462 | 91.47505 | 25574 ft | 443 kts | 278° |
| 2026-05-06 19:27 | 11.83910 | 91.44388 | 25868 ft | 445 kts | 278° |
| 2026-05-06 19:27 | 11.84358 | 91.41266 | 26152 ft | 446 kts | 278° |
| 2026-05-06 19:28 | 11.84806 | 91.38117 | 26435 ft | 448 kts | 278° |
| 2026-05-06 19:28 | 11.85252 | 91.34962 | 26710 ft | 450 kts | 278° |
| 2026-05-06 19:28 | 11.85698 | 91.31799 | 26977 ft | 452 kts | 278° |
| 2026-05-06 19:28 | 11.86136 | 91.28651 | 27240 ft | 454 kts | 277° |
| 2026-05-06 19:29 | 11.86515 | 91.25447 | 27502 ft | 456 kts | 276° |
| 2026-05-06 19:29 | 11.86837 | 91.22223 | 27767 ft | 457 kts | 275° |
| 2026-05-06 19:29 | 11.87123 | 91.18984 | 28015 ft | 459 kts | 274° |
| 2026-05-06 19:29 | 11.87392 | 91.15739 | 28274 ft | 461 kts | 274° |
| 2026-05-06 19:30 | 11.87672 | 91.12468 | 28523 ft | 462 kts | 275° |
| 2026-05-06 19:30 | 11.87971 | 91.09198 | 28765 ft | 464 kts | 275° |
| 2026-05-06 19:30 | 11.88284 | 91.05912 | 29005 ft | 466 kts | 275° |
| 2026-05-06 19:30 | 11.88609 | 91.02616 | 29235 ft | 467 kts | 275° |
| 2026-05-06 19:31 | 11.88938 | 90.99311 | 29458 ft | 469 kts | 275° |
| 2026-05-06 19:31 | 11.89265 | 90.95994 | 29690 ft | 471 kts | 275° |
| 2026-05-06 19:31 | 11.89911 | 90.89321 | 30082 ft | 474 kts | 275° |
| 2026-05-06 19:32 | 11.90230 | 90.85959 | 30264 ft | 475 kts | 275° |
| 2026-05-06 19:32 | 11.90548 | 90.82596 | 30439 ft | 476 kts | 275° |
| 2026-05-06 19:32 | 11.90868 | 90.79233 | 30616 ft | 477 kts | 275° |
| 2026-05-06 19:32 | 11.91190 | 90.75859 | 30804 ft | 477 kts | 275° |
| 2026-05-06 19:33 | 11.91514 | 90.72490 | 31063 ft | 476 kts | 275° |
| 2026-05-06 19:33 | 11.91833 | 90.69168 | 31302 ft | 476 kts | 275° |
| 2026-05-06 19:33 | 11.92152 | 90.65808 | 31544 ft | 475 kts | 275° |
| 2026-05-06 19:33 | 11.92475 | 90.62416 | 31792 ft | 474 kts | 275° |
| 2026-05-06 19:34 | 11.92787 | 90.59105 | 32031 ft | 474 kts | 275° |
| 2026-05-06 19:34 | 11.93101 | 90.55755 | 32267 ft | 474 kts | 275° |
| 2026-05-06 19:34 | 11.93419 | 90.52371 | 32510 ft | 473 kts | 275° |
| 2026-05-06 19:34 | 11.93734 | 90.49067 | 32743 ft | 473 kts | 275° |
| 2026-05-06 19:35 | 11.94052 | 90.45723 | 32979 ft | 473 kts | 275° |
| 2026-05-06 19:35 | 11.94370 | 90.42382 | 33218 ft | 473 kts | 275° |
| 2026-05-06 19:35 | 11.94684 | 90.39040 | 33454 ft | 473 kts | 275° |
| 2026-05-06 19:35 | 11.94997 | 90.35702 | 33712 ft | 472 kts | 275° |
| 2026-05-06 19:36 | 11.95309 | 90.32374 | 33960 ft | 471 kts | 275° |
| 2026-05-06 19:36 | 11.95623 | 90.29045 | 34191 ft | 469 kts | 274° |
| 2026-05-06 19:36 | 11.95935 | 90.25735 | 34416 ft | 468 kts | 274° |
| 2026-05-06 19:36 | 11.96243 | 90.22422 | 34642 ft | 467 kts | 274° |
| 2026-05-06 19:37 | 11.96548 | 90.19132 | 34844 ft | 466 kts | 274° |
| 2026-05-06 19:37 | 11.96855 | 90.15841 | 35056 ft | 465 kts | 274° |
| 2026-05-06 19:37 | 11.97163 | 90.12557 | 35256 ft | 464 kts | 274° |
| 2026-05-06 19:37 | 11.97472 | 90.09279 | 35445 ft | 463 kts | 274° |
| 2026-05-06 19:38 | 11.97777 | 90.06001 | 35640 ft | 463 kts | 274° |
| 2026-05-06 19:38 | 11.98072 | 90.02773 | 35786 ft | 463 kts | 274° |
| 2026-05-06 19:38 | 11.98669 | 89.96268 | 35834 ft | 459 kts | 274° |
| 2026-05-06 19:39 | 11.99264 | 89.89786 | 35830 ft | 458 kts | 274° |
| 2026-05-06 19:39 | 11.99864 | 89.83310 | 35823 ft | 458 kts | 274° |
| 2026-05-06 19:40 | 12.00463 | 89.76831 | 35832 ft | 458 kts | 274° |
| 2026-05-06 19:40 | 12.01063 | 89.70349 | 35826 ft | 458 kts | 274° |
| 2026-05-06 19:41 | 12.01653 | 89.63864 | 35827 ft | 458 kts | 274° |
| 2026-05-06 19:41 | 12.02243 | 89.57378 | 35823 ft | 459 kts | 274° |
| 2026-05-06 19:42 | 12.02831 | 89.50886 | 35824 ft | 459 kts | 274° |
| 2026-05-06 19:42 | 12.03421 | 89.44404 | 35819 ft | 459 kts | 274° |
| 2026-05-06 19:43 | 12.04017 | 89.37912 | 35821 ft | 459 kts | 274° |
| 2026-05-06 19:43 | 12.04600 | 89.31414 | 35824 ft | 459 kts | 274° |
| 2026-05-06 19:44 | 12.05190 | 89.24925 | 35817 ft | 459 kts | 274° |
| 2026-05-06 19:44 | 12.05737 | 89.18815 | 35821 ft | 459 kts | 274° |
| 2026-05-06 19:45 | 12.06287 | 89.12701 | 35821 ft | 459 kts | 274° |
| 2026-05-06 19:45 | 12.06866 | 89.06211 | 35823 ft | 459 kts | 274° |
| 2026-05-06 19:46 | 12.07439 | 88.99764 | 35818 ft | 459 kts | 274° |
| 2026-05-06 19:46 | 12.08015 | 88.93276 | 35819 ft | 458 kts | 274° |
| 2026-05-06 19:47 | 12.08588 | 88.86790 | 35818 ft | 458 kts | 274° |
| 2026-05-06 19:47 | 12.09157 | 88.80306 | 35826 ft | 458 kts | 274° |
| 2026-05-06 19:48 | 12.09729 | 88.73824 | 35819 ft | 458 kts | 274° |
| 2026-05-06 19:48 | 12.10310 | 88.67352 | 35822 ft | 458 kts | 274° |
| 2026-05-06 19:49 | 12.11042 | 88.60888 | 35820 ft | 458 kts | 276° |
| 2026-05-06 19:49 | 12.11861 | 88.54436 | 35818 ft | 458 kts | 276° |
| 2026-05-06 19:50 | 12.12656 | 88.47984 | 35816 ft | 457 kts | 275° |
| 2026-05-06 19:50 | 12.13413 | 88.41523 | 35818 ft | 457 kts | 275° |
| 2026-05-06 19:51 | 12.14157 | 88.35064 | 35823 ft | 457 kts | 275° |
| 2026-05-06 19:51 | 12.14902 | 88.28617 | 35820 ft | 457 kts | 275° |
| 2026-05-06 19:52 | 12.15660 | 88.22174 | 35812 ft | 456 kts | 275° |
| 2026-05-06 19:52 | 12.16417 | 88.15735 | 35820 ft | 456 kts | 275° |
| 2026-05-06 19:53 | 12.17158 | 88.09341 | 35817 ft | 456 kts | 275° |
| 2026-05-06 19:53 | 12.17898 | 88.02906 | 35817 ft | 456 kts | 275° |
| 2026-05-06 19:54 | 12.18641 | 87.96475 | 35808 ft | 455 kts | 275° |
| 2026-05-06 19:54 | 12.19388 | 87.90048 | 35809 ft | 455 kts | 275° |
| 2026-05-06 19:55 | 12.20137 | 87.83614 | 35805 ft | 455 kts | 275° |
| 2026-05-06 19:55 | 12.20876 | 87.77190 | 35811 ft | 455 kts | 275° |
| 2026-05-06 19:56 | 12.21600 | 87.70766 | 35810 ft | 455 kts | 275° |
| 2026-05-06 19:56 | 12.22329 | 87.64345 | 35811 ft | 455 kts | 275° |
| 2026-05-06 19:57 | 12.23063 | 87.57930 | 35809 ft | 454 kts | 275° |
| 2026-05-06 19:57 | 12.23800 | 87.51515 | 35810 ft | 454 kts | 275° |
| 2026-05-06 19:58 | 12.24537 | 87.45102 | 35810 ft | 454 kts | 275° |
| 2026-05-06 19:58 | 12.25270 | 87.38690 | 35810 ft | 454 kts | 275° |
| 2026-05-06 19:59 | 12.25996 | 87.32280 | 35807 ft | 454 kts | 275° |
| 2026-05-06 19:59 | 12.26717 | 87.25873 | 35804 ft | 453 kts | 275° |
| 2026-05-06 20:00 | 12.27435 | 87.19469 | 35805 ft | 453 kts | 275° |
| 2026-05-06 20:00 | 12.28158 | 87.13077 | 35800 ft | 453 kts | 275° |
| 2026-05-06 20:01 | 12.28875 | 87.06717 | 35801 ft | 453 kts | 275° |
| 2026-05-06 20:01 | 12.29589 | 87.00325 | 35815 ft | 452 kts | 275° |
| 2026-05-06 20:02 | 12.30306 | 86.93937 | 35812 ft | 452 kts | 275° |
| 2026-05-06 20:02 | 12.31007 | 86.87549 | 35805 ft | 452 kts | 275° |
| 2026-05-06 20:03 | 12.31722 | 86.81164 | 35803 ft | 452 kts | 275° |
| 2026-05-06 20:03 | 12.32441 | 86.74777 | 35803 ft | 452 kts | 275° |
| 2026-05-06 20:04 | 12.33152 | 86.68389 | 35801 ft | 452 kts | 275° |
| 2026-05-06 20:04 | 12.33866 | 86.61998 | 35800 ft | 452 kts | 275° |
| 2026-05-06 20:05 | 12.34572 | 86.55605 | 35799 ft | 452 kts | 274° |
| 2026-05-06 20:05 | 12.35264 | 86.49208 | 35797 ft | 452 kts | 274° |
| 2026-05-06 20:06 | 12.35963 | 86.42819 | 35797 ft | 452 kts | 274° |
| 2026-05-06 20:06 | 12.36671 | 86.36423 | 35796 ft | 452 kts | 274° |
| 2026-05-06 20:07 | 12.37375 | 86.30020 | 35798 ft | 452 kts | 274° |
| 2026-05-06 20:07 | 12.38073 | 86.23667 | 35795 ft | 452 kts | 274° |
| 2026-05-06 20:08 | 12.38769 | 86.17271 | 35792 ft | 452 kts | 274° |
| 2026-05-06 20:08 | 12.39461 | 86.10873 | 35795 ft | 452 kts | 274° |
| 2026-05-06 20:09 | 12.40153 | 86.04488 | 35793 ft | 452 kts | 274° |
| 2026-05-06 20:09 | 12.40738 | 85.99133 | 35796 ft | 452 kts | 274° |
| 2026-05-06 20:10 | 12.41433 | 85.92747 | 35796 ft | 451 kts | 274° |
| 2026-05-06 20:10 | 12.42117 | 85.86400 | 35801 ft | 451 kts | 274° |
| 2026-05-06 20:11 | 12.42801 | 85.80021 | 35797 ft | 451 kts | 274° |
| 2026-05-06 20:11 | 12.43482 | 85.73654 | 35801 ft | 451 kts | 274° |
| 2026-05-06 20:12 | 12.44159 | 85.67279 | 35802 ft | 450 kts | 274° |
| 2026-05-06 20:12 | 12.44839 | 85.60910 | 35802 ft | 450 kts | 274° |
| 2026-05-06 20:13 | 12.45521 | 85.54552 | 35798 ft | 450 kts | 274° |
| 2026-05-06 20:13 | 12.46207 | 85.48189 | 35800 ft | 450 kts | 274° |
| 2026-05-06 20:14 | 12.46886 | 85.41828 | 35795 ft | 450 kts | 274° |
| 2026-05-06 20:14 | 12.47556 | 85.35468 | 35796 ft | 449 kts | 274° |
| 2026-05-06 20:15 | 12.48231 | 85.29111 | 35798 ft | 449 kts | 274° |
| 2026-05-06 20:15 | 12.48902 | 85.22754 | 35798 ft | 449 kts | 274° |
| 2026-05-06 20:16 | 12.49572 | 85.16402 | 35799 ft | 449 kts | 274° |
| 2026-05-06 20:16 | 12.50236 | 85.10046 | 35800 ft | 449 kts | 274° |
| 2026-05-06 20:17 | 12.50895 | 85.03689 | 35799 ft | 449 kts | 274° |
| 2026-05-06 20:17 | 12.51562 | 84.97333 | 35799 ft | 449 kts | 274° |
| 2026-05-06 20:18 | 12.52232 | 84.90976 | 35799 ft | 449 kts | 274° |
| 2026-05-06 20:18 | 12.52893 | 84.84619 | 35793 ft | 449 kts | 274° |
| 2026-05-06 20:19 | 12.53550 | 84.78262 | 35800 ft | 449 kts | 274° |
| 2026-05-06 20:19 | 12.54206 | 84.71904 | 35799 ft | 449 kts | 274° |
| 2026-05-06 20:20 | 12.54865 | 84.65589 | 35793 ft | 449 kts | 274° |
| 2026-05-06 20:20 | 12.55524 | 84.59232 | 35802 ft | 449 kts | 274° |
| 2026-05-06 20:21 | 12.56176 | 84.52875 | 35802 ft | 449 kts | 274° |
| 2026-05-06 20:21 | 12.56818 | 84.46519 | 35801 ft | 449 kts | 274° |
| 2026-05-06 20:22 | 12.57473 | 84.40164 | 35805 ft | 449 kts | 274° |
| 2026-05-06 20:22 | 12.58127 | 84.33809 | 35801 ft | 449 kts | 274° |
| 2026-05-06 20:23 | 12.58772 | 84.27451 | 35801 ft | 449 kts | 274° |
| 2026-05-06 20:23 | 12.59420 | 84.21091 | 35800 ft | 449 kts | 274° |
| 2026-05-06 20:24 | 12.60065 | 84.14762 | 35796 ft | 449 kts | 274° |
| 2026-05-06 20:24 | 12.60710 | 84.08395 | 35793 ft | 450 kts | 274° |
| 2026-05-06 20:25 | 12.61357 | 84.02025 | 35794 ft | 450 kts | 274° |
| 2026-05-06 20:25 | 12.61992 | 83.95652 | 35792 ft | 450 kts | 274° |
| 2026-05-06 20:26 | 12.62630 | 83.89285 | 35801 ft | 450 kts | 274° |
| 2026-05-06 20:26 | 12.63271 | 83.82910 | 35803 ft | 449 kts | 274° |
| 2026-05-06 20:27 | 12.63908 | 83.76546 | 35807 ft | 449 kts | 274° |
| 2026-05-06 20:27 | 12.64539 | 83.70185 | 35806 ft | 449 kts | 274° |
| 2026-05-06 20:28 | 12.65173 | 83.63830 | 35803 ft | 448 kts | 274° |
| 2026-05-06 20:28 | 12.65797 | 83.57477 | 35813 ft | 448 kts | 274° |
| 2026-05-06 20:29 | 12.65700 | 83.51171 | 35808 ft | 446 kts | 265° |
| 2026-05-06 20:29 | 12.65293 | 83.44832 | 35802 ft | 446 kts | 265° |
| 2026-05-06 20:30 | 12.64686 | 83.35319 | 35799 ft | 446 kts | 265° |
| 2026-05-06 20:31 | 12.64279 | 83.28974 | 35800 ft | 447 kts | 265° |
| 2026-05-06 20:31 | 12.63863 | 83.22626 | 35801 ft | 447 kts | 264° |
| 2026-05-06 20:32 | 12.63450 | 83.16275 | 35799 ft | 447 kts | 265° |
| 2026-05-06 20:32 | 12.63109 | 83.10901 | 35797 ft | 447 kts | 265° |
| 2026-05-06 20:33 | 12.62698 | 83.04550 | 35796 ft | 447 kts | 264° |
| 2026-05-06 20:33 | 12.62283 | 82.98193 | 35797 ft | 448 kts | 265° |
| 2026-05-06 20:34 | 12.61868 | 82.91834 | 35797 ft | 448 kts | 265° |
| 2026-05-06 20:34 | 12.61447 | 82.85473 | 35798 ft | 448 kts | 264° |
| 2026-05-06 20:35 | 12.61018 | 82.79105 | 35798 ft | 448 kts | 264° |
| 2026-05-06 20:35 | 12.60601 | 82.72740 | 35800 ft | 448 kts | 264° |
| 2026-05-06 20:36 | 12.60185 | 82.66379 | 35798 ft | 448 kts | 264° |
| 2026-05-06 20:36 | 12.59760 | 82.60017 | 35800 ft | 448 kts | 264° |
| 2026-05-06 20:37 | 12.59328 | 82.53660 | 35803 ft | 448 kts | 264° |
| 2026-05-06 20:37 | 12.58903 | 82.47342 | 35803 ft | 448 kts | 264° |
| 2026-05-06 20:38 | 12.58474 | 82.40982 | 35805 ft | 447 kts | 264° |
| 2026-05-06 20:38 | 12.58042 | 82.34635 | 35803 ft | 447 kts | 264° |
| 2026-05-06 20:39 | 12.57607 | 82.28281 | 35803 ft | 447 kts | 264° |
| 2026-05-06 20:39 | 12.57179 | 82.21932 | 35801 ft | 447 kts | 264° |
| 2026-05-06 20:40 | 12.56745 | 82.15583 | 35802 ft | 447 kts | 264° |
| 2026-05-06 20:40 | 12.56526 | 82.12394 | 35500 ft | 448 kts | 264° |
| 2026-05-06 20:40 | 12.56308 | 82.09215 | 34937 ft | 446 kts | 264° |
| 2026-05-06 20:40 | 12.56089 | 82.06058 | 34415 ft | 443 kts | 264° |
| 2026-05-06 20:41 | 12.55887 | 82.02915 | 33883 ft | 442 kts | 268° |
| 2026-05-06 20:41 | 12.56068 | 81.99777 | 33295 ft | 441 kts | 278° |
| 2026-05-06 20:41 | 12.56684 | 81.96713 | 32780 ft | 438 kts | 281° |
| 2026-05-06 20:41 | 12.57336 | 81.93671 | 32248 ft | 435 kts | 281° |
| 2026-05-06 20:42 | 12.57976 | 81.90658 | 31726 ft | 433 kts | 281° |
| 2026-05-06 20:42 | 12.58611 | 81.87657 | 31215 ft | 430 kts | 281° |
| 2026-05-06 20:42 | 12.59240 | 81.84664 | 30701 ft | 428 kts | 281° |
| 2026-05-06 20:42 | 12.59864 | 81.81697 | 30196 ft | 426 kts | 281° |
| 2026-05-06 20:43 | 12.60486 | 81.78742 | 29687 ft | 423 kts | 281° |
| 2026-05-06 20:43 | 12.61103 | 81.75810 | 29169 ft | 420 kts | 281° |
| 2026-05-06 20:43 | 12.61714 | 81.72906 | 28713 ft | 415 kts | 281° |
| 2026-05-06 20:43 | 12.62319 | 81.70032 | 28252 ft | 411 kts | 281° |
| 2026-05-06 20:44 | 12.62918 | 81.67184 | 27789 ft | 407 kts | 281° |
| 2026-05-06 20:44 | 12.63502 | 81.64398 | 27329 ft | 404 kts | 281° |
| 2026-05-06 20:44 | 12.64088 | 81.61594 | 26876 ft | 401 kts | 281° |
| 2026-05-06 20:44 | 12.64670 | 81.58808 | 26415 ft | 399 kts | 281° |
| 2026-05-06 20:45 | 12.65252 | 81.56035 | 25943 ft | 397 kts | 281° |
| 2026-05-06 20:45 | 12.65831 | 81.53273 | 25469 ft | 396 kts | 281° |
| 2026-05-06 20:45 | 12.66406 | 81.50522 | 24980 ft | 395 kts | 281° |
| 2026-05-06 20:45 | 12.66982 | 81.47771 | 24486 ft | 395 kts | 281° |
| 2026-05-06 20:46 | 12.67557 | 81.45023 | 23983 ft | 395 kts | 281° |
| 2026-05-06 20:46 | 12.68133 | 81.42274 | 23473 ft | 395 kts | 281° |
| 2026-05-06 20:46 | 12.68709 | 81.39522 | 22892 ft | 395 kts | 281° |
| 2026-05-06 20:46 | 12.69281 | 81.36785 | 22455 ft | 391 kts | 282° |
| 2026-05-06 20:47 | 12.69847 | 81.34066 | 22022 ft | 387 kts | 282° |
| 2026-05-06 20:47 | 12.70410 | 81.31369 | 21513 ft | 386 kts | 282° |
| 2026-05-06 20:47 | 12.70967 | 81.28704 | 21158 ft | 381 kts | 282° |
| 2026-05-06 20:47 | 12.71522 | 81.26052 | 20530 ft | 383 kts | 282° |
| 2026-05-06 20:48 | 12.72082 | 81.23371 | 19944 ft | 385 kts | 282° |
| 2026-05-06 20:48 | 12.72639 | 81.20693 | 19461 ft | 384 kts | 282° |
| 2026-05-06 20:48 | 12.73201 | 81.17998 | 18973 ft | 388 kts | 282° |
| 2026-05-06 20:48 | 12.73762 | 81.15297 | 18497 ft | 387 kts | 282° |
| 2026-05-06 20:49 | 12.74318 | 81.12612 | 18065 ft | 384 kts | 282° |
| 2026-05-06 20:49 | 12.74869 | 81.09951 | 17487 ft | 382 kts | 282° |
| 2026-05-06 20:49 | 12.75427 | 81.07265 | 16755 ft | 387 kts | 282° |
| 2026-05-06 20:49 | 12.75986 | 81.04571 | 16196 ft | 386 kts | 282° |
| 2026-05-06 20:50 | 12.76542 | 81.01884 | 15704 ft | 383 kts | 282° |
| 2026-05-06 20:50 | 12.77094 | 80.99224 | 15215 ft | 381 kts | 283° |
| 2026-05-06 20:50 | 12.77645 | 80.96580 | 14743 ft | 378 kts | 283° |
| 2026-05-06 20:50 | 12.78194 | 80.93953 | 14263 ft | 376 kts | 283° |
| 2026-05-06 20:51 | 12.78736 | 80.91342 | 13797 ft | 374 kts | 283° |
| 2026-05-06 20:51 | 12.79272 | 80.88745 | 13282 ft | 372 kts | 283° |
| 2026-05-06 20:51 | 12.79808 | 80.86162 | 12766 ft | 369 kts | 283° |
| 2026-05-06 20:51 | 12.80342 | 80.83611 | 12386 ft | 363 kts | 284° |
| 2026-05-06 20:52 | 12.81207 | 80.81216 | 12024 ft | 355 kts | 298° |
| 2026-05-06 20:52 | 12.82283 | 80.78979 | 11731 ft | 347 kts | 297° |
| 2026-05-06 20:52 | 12.83338 | 80.76780 | 11439 ft | 340 kts | 297° |
| 2026-05-06 20:52 | 12.84368 | 80.74629 | 11160 ft | 333 kts | 297° |
| 2026-05-06 20:53 | 12.85379 | 80.72518 | 10878 ft | 327 kts | 297° |
| 2026-05-06 20:53 | 12.86370 | 80.70449 | 10595 ft | 317 kts | 298° |
| 2026-05-06 20:53 | 12.87322 | 80.68462 | 10225 ft | 305 kts | 298° |
| 2026-05-06 20:53 | 12.88250 | 80.66525 | 9678 ft | 301 kts | 298° |
| 2026-05-06 20:54 | 12.89172 | 80.64600 | 9013 ft | 299 kts | 297° |
| 2026-05-06 20:54 | 12.90083 | 80.62698 | 8379 ft | 297 kts | 297° |
| 2026-05-06 20:54 | 12.90989 | 80.60806 | 7752 ft | 294 kts | 297° |
| 2026-05-06 20:54 | 12.91884 | 80.58933 | 7194 ft | 292 kts | 297° |
| 2026-05-06 20:55 | 12.92766 | 80.57084 | 6740 ft | 294 kts | 296° |
| 2026-05-06 20:55 | 12.93668 | 80.55193 | 6280 ft | 296 kts | 296° |
| 2026-05-06 20:55 | 12.94577 | 80.53296 | 5792 ft | 297 kts | 296° |
| 2026-05-06 20:55 | 12.95485 | 80.51401 | 5369 ft | 295 kts | 296° |
| 2026-05-06 20:56 | 12.96381 | 80.49525 | 5088 ft | 288 kts | 296° |
| 2026-05-06 20:56 | 12.97249 | 80.47710 | 4848 ft | 280 kts | 296° |
| 2026-05-06 20:56 | 12.98095 | 80.45945 | 4617 ft | 272 kts | 296° |
| 2026-05-06 20:56 | 12.99101 | 80.44343 | 4366 ft | 264 kts | 313° |
| 2026-05-06 20:57 | 12.99992 | 80.43516 | 4202 ft | 258 kts | 323° |
| 2026-05-06 20:57 | 13.01389 | 80.42394 | 3967 ft | 251 kts | 322° |
| 2026-05-06 20:57 | 13.02734 | 80.41306 | 3776 ft | 243 kts | 322° |
| 2026-05-06 20:57 | 13.04041 | 80.40246 | 3589 ft | 236 kts | 322° |
| 2026-05-06 20:58 | 13.05180 | 80.39081 | 3398 ft | 228 kts | 304° |
| 2026-05-06 20:58 | 13.05843 | 80.37646 | 3238 ft | 219 kts | 283° |
| 2026-05-06 20:58 | 13.05998 | 80.36125 | 3139 ft | 212 kts | 264° |
| 2026-05-06 20:58 | 13.05692 | 80.34704 | 2998 ft | 200 kts | 246° |
| 2026-05-06 20:59 | 13.05199 | 80.33394 | 2888 ft | 196 kts | 247° |
| 2026-05-06 20:59 | 13.04715 | 80.32098 | 2724 ft | 192 kts | 246° |
| 2026-05-06 20:59 | 13.04241 | 80.30832 | 2502 ft | 189 kts | 246° |
| 2026-05-06 20:59 | 13.03773 | 80.29584 | 2276 ft | 186 kts | 246° |
| 2026-05-06 21:00 | 13.03326 | 80.28389 | 2040 ft | 172 kts | 246° |
| 2026-05-06 21:00 | 13.02911 | 80.27279 | 1831 ft | 161 kts | 245° |
| 2026-05-06 21:00 | 13.02525 | 80.26248 | 1648 ft | 150 kts | 246° |
| 2026-05-06 21:00 | 13.02154 | 80.25260 | 1437 ft | 147 kts | 245° |
| 2026-05-06 21:01 | 13.01789 | 80.24288 | 1254 ft | 145 kts | 245° |
| 2026-05-06 21:01 | 13.01427 | 80.23324 | 1070 ft | 145 kts | 245° |
| 2026-05-06 21:01 | 13.01065 | 80.22359 | 888 ft | 144 kts | 246° |
| 2026-05-06 21:01 | 13.00704 | 80.21398 | 720 ft | 145 kts | 248° |
| 2026-05-06 21:02 | 13.00351 | 80.20436 | 551 ft | 143 kts | 249° |
| 2026-05-06 21:02 | 12.99998 | 80.19484 | 392 ft | 143 kts | 244° |
| 2026-05-06 21:02 | 12.99630 | 80.18543 | 135 ft | 141 kts | 247° |
| 2026-05-06 21:02 | 12.99277 | 80.17606 | 54 ft | 147 kts | 248° |
| 2026-05-06 21:03 | 12.98935 | 80.16685 | 56 ft | 106 kts | 249° |
| 2026-05-06 21:03 | 12.98785 | 80.16280 | 53 ft | 33 kts | 248° |
| 2026-05-06 21:03 | 12.98704 | 80.16063 | 53 ft | 29 kts | 248° |
| 2026-05-06 21:03 | 12.98642 | 80.15900 | 51 ft | 18 kts | 250° |
| 2026-05-06 21:04 | 12.98577 | 80.15881 | 55 ft | 13 kts | 122° |
| 2026-05-06 21:04 | 12.98556 | 80.15973 | 53 ft | 13 kts | 102° |
| 2026-05-06 21:04 | 12.98538 | 80.16060 | 55 ft | 11 kts | 102° |
| 2026-05-06 21:04 | 12.98513 | 80.16120 | 55 ft | 8 kts | 131° |
| 2026-05-06 21:05 | 12.98468 | 80.16145 | 55 ft | 7 kts | 157° |
| 2026-05-06 21:05 | 12.98430 | 80.16160 | 55 ft | 5 kts | 160° |
| 2026-05-06 21:05 | 12.98391 | 80.16182 | 55 ft | 9 kts | 129° |
| 2026-05-06 21:05 | 12.98358 | 80.16229 | 54 ft | 10 kts | 158° |
| 2026-05-06 21:06 | 12.98325 | 80.16241 | 50 ft | 2 kts | 161° |
| 2026-05-06 21:06 | 12.98321 | 80.16242 | 52 ft | 0 kts | 161° |